sensor_id;sensor_type;location;lat;lon;timestamp;pressure;altitude;pressure_sealevel;temperature;humidity
44198;BME280;30157;55.512;37.764;2023-04-08T00:00:26;100940.47;;;2.27;44.52
44198;BME280;30157;55.512;37.764;2023-04-08T00:02:51;101099.22;;;3.16;45.05
44198;BME280;30157;55.512;37.764;2023-04-08T00:05:17;101029.69;;;2.72;45.10
44198;BME280;30157;55.512;37.764;2023-04-08T00:07:45;101099.69;;;3.07;45.08
44198;BME280;30157;55.512;37.764;2023-04-08T00:10:11;101081.06;;;2.93;45.08
44198;BME280;30157;55.512;37.764;2023-04-08T00:12:38;101080.72;;;2.85;45.47
44198;BME280;30157;55.512;37.764;2023-04-08T00:15:04;101103.41;;;2.96;45.45
44198;BME280;30157;55.512;37.764;2023-04-08T00:17:30;101048.78;;;2.61;45.21
44198;BME280;30157;55.512;37.764;2023-04-08T00:19:56;101103.03;;;2.88;45.88
44198;BME280;30157;55.512;37.764;2023-04-08T00:22:22;101059.94;;;2.61;45.48
44198;BME280;30157;55.512;37.764;2023-04-08T00:24:47;101109.00;;;2.87;45.65
44198;BME280;30157;55.512;37.764;2023-04-08T00:27:13;101024.94;;;2.44;45.92
44198;BME280;30157;55.512;37.764;2023-04-08T00:29:39;101089.16;;;2.83;45.82
44198;BME280;30157;55.512;37.764;2023-04-08T00:32:04;101087.03;;;2.74;45.99
44198;BME280;30157;55.512;37.764;2023-04-08T00:34:30;101031.38;;;2.35;46.00
44198;BME280;30157;55.512;37.764;2023-04-08T00:36:56;101092.59;;;2.65;46.36
44198;BME280;30157;55.512;37.764;2023-04-08T00:39:22;101074.66;;;2.47;47.00
44198;BME280;30157;55.512;37.764;2023-04-08T00:41:48;101090.34;;;2.54;46.57
44198;BME280;30157;55.512;37.764;2023-04-08T00:44:13;101104.97;;;2.56;47.22
44198;BME280;30157;55.512;37.764;2023-04-08T00:46:39;101100.28;;;2.47;47.48
44198;BME280;30157;55.512;37.764;2023-04-08T00:49:05;101084.56;;;2.40;47.43
44198;BME280;30157;55.512;37.764;2023-04-08T00:51:34;101098.22;;;2.40;47.58
44198;BME280;30157;55.512;37.764;2023-04-08T00:54:04;101092.31;;;2.41;47.33
44198;BME280;30157;55.512;37.764;2023-04-08T00:56:31;101100.06;;;2.43;47.49
44198;BME280;30157;55.512;37.764;2023-04-08T00:58:59;101064.66;;;2.17;47.42
44198;BME280;30157;55.512;37.764;2023-04-08T01:01:38;101098.00;;;2.35;48.03
44198;BME280;30157;55.512;37.764;2023-04-08T01:06:53;101080.38;;;2.07;48.47
44198;BME280;30157;55.512;37.764;2023-04-08T01:09:24;101085.59;;;2.09;49.07
44198;BME280;30157;55.512;37.764;2023-04-08T01:11:52;101108.66;;;2.09;49.24
44198;BME280;30157;55.512;37.764;2023-04-08T01:14:20;101099.13;;;2.06;50.37
44198;BME280;30157;55.512;37.764;2023-04-08T01:16:50;101105.78;;;2.03;49.79
44198;BME280;30157;55.512;37.764;2023-04-08T01:19:36;101097.69;;;1.95;49.90
44198;BME280;30157;55.512;37.764;2023-04-08T01:22:14;101023.38;;;1.42;50.27
44198;BME280;30157;55.512;37.764;2023-04-08T01:24:44;101044.00;;;1.62;50.67
44198;BME280;30157;55.512;37.764;2023-04-08T01:27:13;101109.63;;;1.94;49.94
44198;BME280;30157;55.512;37.764;2023-04-08T01:29:39;101099.25;;;1.91;50.28
44198;BME280;30157;55.512;37.764;2023-04-08T01:32:06;101110.28;;;1.90;50.24
44198;BME280;30157;55.512;37.764;2023-04-08T01:34:34;101079.41;;;1.71;50.39
44198;BME280;30157;55.512;37.764;2023-04-08T01:37:01;101043.28;;;1.48;50.62
44198;BME280;30157;55.512;37.764;2023-04-08T01:39:27;101094.75;;;1.71;50.84
44198;BME280;30157;55.512;37.764;2023-04-08T01:41:55;101099.00;;;1.70;51.00
44198;BME280;30157;55.512;37.764;2023-04-08T01:44:25;101090.22;;;1.65;51.19
44198;BME280;30157;55.512;37.764;2023-04-08T01:46:52;101108.06;;;1.63;51.65
44198;BME280;30157;55.512;37.764;2023-04-08T01:49:20;101112.38;;;1.64;51.37
44198;BME280;30157;55.512;37.764;2023-04-08T01:51:47;101092.22;;;1.54;51.63
44198;BME280;30157;55.512;37.764;2023-04-08T01:54:13;101090.59;;;1.56;51.64
44198;BME280;30157;55.512;37.764;2023-04-08T01:56:40;101094.84;;;1.56;51.46
44198;BME280;30157;55.512;37.764;2023-04-08T01:59:11;101098.38;;;1.58;51.65
44198;BME280;30157;55.512;37.764;2023-04-08T02:01:38;101112.91;;;1.59;51.76
44198;BME280;30157;55.512;37.764;2023-04-08T02:04:04;101110.13;;;1.54;51.66
44198;BME280;30157;55.512;37.764;2023-04-08T02:06:30;101065.19;;;1.26;51.66
44198;BME280;30157;55.512;37.764;2023-04-08T02:08:58;101066.78;;;1.24;51.93
44198;BME280;30157;55.512;37.764;2023-04-08T02:11:24;101085.69;;;1.43;51.74
44198;BME280;30157;55.512;37.764;2023-04-08T02:13:50;101114.47;;;1.55;51.82
44198;BME280;30157;55.512;37.764;2023-04-08T02:19:17;101057.50;;;1.10;52.48
44198;BME280;30157;55.512;37.764;2023-04-08T02:21:54;101080.53;;;1.26;52.71
44198;BME280;30157;55.512;37.764;2023-04-08T02:24:22;101110.50;;;1.29;52.76
44198;BME280;30157;55.512;37.764;2023-04-08T02:26:49;101067.06;;;0.97;53.43
44198;BME280;30157;55.512;37.764;2023-04-08T02:29:17;101088.03;;;1.07;53.27
44198;BME280;30157;55.512;37.764;2023-04-08T02:31:44;101083.28;;;0.98;53.45
44198;BME280;30157;55.512;37.764;2023-04-08T02:34:12;101119.22;;;1.16;53.68
44198;BME280;30157;55.512;37.764;2023-04-08T02:36:39;101112.00;;;1.09;53.73
44198;BME280;30157;55.512;37.764;2023-04-08T02:39:07;101117.53;;;1.16;53.50
44198;BME280;30157;55.512;37.764;2023-04-08T02:41:33;101058.47;;;0.80;53.87
44198;BME280;30157;55.512;37.764;2023-04-08T02:43:58;101059.19;;;0.78;53.83
44198;BME280;30157;55.512;37.764;2023-04-08T02:46:24;101124.22;;;1.14;53.36
44198;BME280;30157;55.512;37.764;2023-04-08T02:48:50;101076.16;;;0.92;53.45
44198;BME280;30157;55.512;37.764;2023-04-08T02:51:15;101127.69;;;1.15;53.46
44198;BME280;30157;55.512;37.764;2023-04-08T02:53:41;101128.97;;;1.23;53.49
44198;BME280;30157;55.512;37.764;2023-04-08T02:56:10;101124.97;;;1.12;53.55
44198;BME280;30157;55.512;37.764;2023-04-08T02:58:36;101131.81;;;1.13;54.04
44198;BME280;30157;55.512;37.764;2023-04-08T03:01:02;101070.03;;;0.74;54.12
44198;BME280;30157;55.512;37.764;2023-04-08T03:03:27;101140.63;;;1.18;54.01
44198;BME280;30157;55.512;37.764;2023-04-08T03:05:55;101117.81;;;1.06;54.23
44198;BME280;30157;55.512;37.764;2023-04-08T03:08:21;101145.09;;;1.22;54.26
44198;BME280;30157;55.512;37.764;2023-04-08T03:10:47;101135.66;;;1.21;54.04
44198;BME280;30157;55.512;37.764;2023-04-08T03:13:14;101145.44;;;1.28;54.44
44198;BME280;30157;55.512;37.764;2023-04-08T03:15:40;101052.34;;;0.77;54.45
44198;BME280;30157;55.512;37.764;2023-04-08T03:18:06;101139.69;;;1.32;54.53
44198;BME280;30157;55.512;37.764;2023-04-08T03:20:34;101067.78;;;0.95;54.03
44198;BME280;30157;55.512;37.764;2023-04-08T03:23:02;101108.03;;;1.30;54.24
44198;BME280;30157;55.512;37.764;2023-04-08T03:25:27;101124.69;;;1.72;53.67
44198;BME280;30157;55.512;37.764;2023-04-08T03:27:54;101132.84;;;2.32;53.20
44198;BME280;30157;55.512;37.764;2023-04-08T03:30:20;101081.41;;;2.45;51.65
44198;BME280;30157;55.512;37.764;2023-04-08T03:32:45;101063.16;;;2.75;51.47
44198;BME280;30157;55.512;37.764;2023-04-08T03:35:11;101120.25;;;3.46;50.42
44198;BME280;30157;55.512;37.764;2023-04-08T03:37:37;101079.38;;;3.51;49.17
44198;BME280;30157;55.512;37.764;2023-04-08T03:40:03;101140.59;;;4.00;47.95
44198;BME280;30157;55.512;37.764;2023-04-08T03:42:29;101130.13;;;4.17;48.34
44198;BME280;30157;55.512;37.764;2023-04-08T03:44:55;101148.34;;;4.43;47.68
44198;BME280;30157;55.512;37.764;2023-04-08T03:47:21;101119.94;;;4.61;47.06
44198;BME280;30157;55.512;37.764;2023-04-08T03:49:47;101107.03;;;4.82;46.06
44198;BME280;30157;55.512;37.764;2023-04-08T03:52:12;101114.31;;;5.15;44.96
44198;BME280;30157;55.512;37.764;2023-04-08T03:54:38;101072.69;;;5.02;44.82
44198;BME280;30157;55.512;37.764;2023-04-08T03:57:04;101135.03;;;5.65;44.30
44198;BME280;30157;55.512;37.764;2023-04-08T03:59:29;101100.06;;;5.71;44.29
44198;BME280;30157;55.512;37.764;2023-04-08T04:01:55;101134.50;;;6.22;43.18
44198;BME280;30157;55.512;37.764;2023-04-08T04:04:21;101141.19;;;6.43;42.82
44198;BME280;30157;55.512;37.764;2023-04-08T04:06:46;101122.91;;;6.62;42.18
44198;BME280;30157;55.512;37.764;2023-04-08T04:09:12;101143.78;;;6.97;41.80
44198;BME280;30157;55.512;37.764;2023-04-08T04:11:39;101128.03;;;7.17;41.01
44198;BME280;30157;55.512;37.764;2023-04-08T04:14:05;101083.78;;;7.04;40.66
44198;BME280;30157;55.512;37.764;2023-04-08T04:16:30;101133.66;;;7.63;40.23
44198;BME280;30157;55.512;37.764;2023-04-08T04:18:56;101127.28;;;7.82;39.60
44198;BME280;30157;55.512;37.764;2023-04-08T04:21:22;101075.09;;;7.63;39.19
44198;BME280;30157;55.512;37.764;2023-04-08T04:23:47;101107.13;;;8.00;39.13
44198;BME280;30157;55.512;37.764;2023-04-08T04:26:13;101088.53;;;8.15;38.52
44198;BME280;30157;55.512;37.764;2023-04-08T04:28:39;100985.22;;;7.85;37.81
44198;BME280;30157;55.512;37.764;2023-04-08T04:31:05;101145.41;;;8.82;37.63
44198;BME280;30157;55.512;37.764;2023-04-08T04:33:31;101145.91;;;9.05;37.39
44198;BME280;30157;55.512;37.764;2023-04-08T04:35:57;101147.31;;;9.29;37.13
44198;BME280;30157;55.512;37.764;2023-04-08T04:38:22;101133.81;;;9.44;36.21
44198;BME280;30157;55.512;37.764;2023-04-08T04:40:48;101140.44;;;9.74;35.98
44198;BME280;30157;55.512;37.764;2023-04-08T04:43:13;101135.66;;;9.94;35.71
44198;BME280;30157;55.512;37.764;2023-04-08T04:45:39;101114.31;;;10.09;35.48
44198;BME280;30157;55.512;37.764;2023-04-08T04:48:05;101134.00;;;10.47;34.58
44198;BME280;30157;55.512;37.764;2023-04-08T04:50:33;101141.59;;;10.88;34.37
44198;BME280;30157;55.512;37.764;2023-04-08T04:53:01;101144.25;;;10.92;34.33
44198;BME280;30157;55.512;37.764;2023-04-08T04:55:26;101134.34;;;11.28;34.08
44198;BME280;30157;55.512;37.764;2023-04-08T04:57:52;101134.81;;;11.65;32.61
44198;BME280;30157;55.512;37.764;2023-04-08T05:00:18;101108.88;;;11.71;32.75
44198;BME280;30157;55.512;37.764;2023-04-08T05:02:43;101047.56;;;11.17;32.71
44198;BME280;30157;55.512;37.764;2023-04-08T05:05:09;101095.00;;;10.99;33.48
44198;BME280;30157;55.512;37.764;2023-04-08T05:07:35;101136.06;;;11.26;33.49
44198;BME280;30157;55.512;37.764;2023-04-08T05:10:02;101154.28;;;11.98;32.54
44198;BME280;30157;55.512;37.764;2023-04-08T05:12:29;101109.19;;;11.99;31.92
44198;BME280;30157;55.512;37.764;2023-04-08T05:14:57;101152.19;;;12.52;31.15
44198;BME280;30157;55.512;37.764;2023-04-08T05:17:22;101151.47;;;12.73;30.94
44198;BME280;30157;55.512;37.764;2023-04-08T05:19:48;101097.28;;;12.24;30.96
44198;BME280;30157;55.512;37.764;2023-04-08T05:22:14;101150.44;;;12.51;31.00
44198;BME280;30157;55.512;37.764;2023-04-08T05:24:39;101122.41;;;12.21;31.37
44198;BME280;30157;55.512;37.764;2023-04-08T05:27:05;101149.53;;;12.48;31.64
44198;BME280;30157;55.512;37.764;2023-04-08T05:29:31;101116.88;;;12.90;30.86
44198;BME280;30157;55.512;37.764;2023-04-08T05:31:56;101165.16;;;13.85;30.00
44198;BME280;30157;55.512;37.764;2023-04-08T05:34:23;101173.91;;;14.05;29.06
44198;BME280;30157;55.512;37.764;2023-04-08T05:36:49;101066.78;;;13.45;28.87
44198;BME280;30157;55.512;37.764;2023-04-08T05:39:17;101178.25;;;14.08;29.44
44198;BME280;30157;55.512;37.764;2023-04-08T05:41:43;101108.59;;;13.84;29.36
44198;BME280;30157;55.512;37.764;2023-04-08T05:44:09;101131.28;;;14.26;29.18
44198;BME280;30157;55.512;37.764;2023-04-08T05:46:36;101158.31;;;14.87;28.34
44198;BME280;30157;55.512;37.764;2023-04-08T05:49:02;101169.66;;;14.89;28.07
44198;BME280;30157;55.512;37.764;2023-04-08T05:51:27;101164.44;;;14.68;28.88
44198;BME280;30157;55.512;37.764;2023-04-08T05:53:53;101174.81;;;15.20;27.86
44198;BME280;30157;55.512;37.764;2023-04-08T05:56:19;101176.53;;;15.27;27.48
44198;BME280;30157;55.512;37.764;2023-04-08T05:58:45;101152.13;;;15.28;27.40
44198;BME280;30157;55.512;37.764;2023-04-08T06:01:11;101057.25;;;14.97;27.63
44198;BME280;30157;55.512;37.764;2023-04-08T06:03:36;101176.28;;;15.97;26.87
44198;BME280;30157;55.512;37.764;2023-04-08T06:06:02;101146.53;;;16.10;26.77
44198;BME280;30157;55.512;37.764;2023-04-08T06:08:28;101126.41;;;16.19;26.27
44198;BME280;30157;55.512;37.764;2023-04-08T06:10:54;101156.94;;;16.21;26.28
44198;BME280;30157;55.512;37.764;2023-04-08T06:13:19;101138.63;;;16.17;26.64
44198;BME280;30157;55.512;37.764;2023-04-08T06:15:46;101139.25;;;16.51;26.06
44198;BME280;30157;55.512;37.764;2023-04-08T06:18:17;101078.31;;;16.29;26.03
44198;BME280;30157;55.512;37.764;2023-04-08T06:20:42;101167.66;;;17.02;25.91
44198;BME280;30157;55.512;37.764;2023-04-08T06:23:08;101160.44;;;17.21;25.51
44198;BME280;30157;55.512;37.764;2023-04-08T06:25:34;101145.47;;;17.31;25.49
44198;BME280;30157;55.512;37.764;2023-04-08T06:27:59;101145.53;;;17.26;25.34
44198;BME280;30157;55.512;37.764;2023-04-08T06:30:25;101129.72;;;17.31;25.49
44198;BME280;30157;55.512;37.764;2023-04-08T06:32:50;101150.94;;;17.12;25.34
44198;BME280;30157;55.512;37.764;2023-04-08T06:35:16;101168.47;;;17.07;25.40
44198;BME280;30157;55.512;37.764;2023-04-08T06:37:42;101162.06;;;17.35;25.64
44198;BME280;30157;55.512;37.764;2023-04-08T06:40:08;101152.84;;;17.74;25.11
44198;BME280;30157;55.512;37.764;2023-04-08T06:42:34;101078.81;;;17.48;25.03
44198;BME280;30157;55.512;37.764;2023-04-08T06:45:18;101101.72;;;16.51;25.99
44198;BME280;30157;55.512;37.764;2023-04-08T06:47:45;101153.88;;;16.77;25.84
44198;BME280;30157;55.512;37.764;2023-04-08T06:50:10;101076.34;;;16.53;25.94
44198;BME280;30157;55.512;37.764;2023-04-08T06:52:36;101110.16;;;16.80;25.62
44198;BME280;30157;55.512;37.764;2023-04-08T06:55:02;101120.13;;;16.37;26.39
44198;BME280;30157;55.512;37.764;2023-04-08T06:57:28;101159.00;;;16.88;26.07
44198;BME280;30157;55.512;37.764;2023-04-08T06:59:53;101162.03;;;17.36;26.04
44198;BME280;30157;55.512;37.764;2023-04-08T07:02:20;101154.28;;;17.97;25.24
44198;BME280;30157;55.512;37.764;2023-04-08T07:04:47;101152.59;;;18.51;24.53
44198;BME280;30157;55.512;37.764;2023-04-08T07:07:13;101151.97;;;18.35;24.42
44198;BME280;30157;55.512;37.764;2023-04-08T07:09:41;101148.84;;;18.11;25.07
44198;BME280;30157;55.512;37.764;2023-04-08T07:12:13;101102.53;;;18.04;24.14
44198;BME280;30157;55.512;37.764;2023-04-08T07:14:38;101152.09;;;18.27;24.25
44198;BME280;30157;55.512;37.764;2023-04-08T07:17:04;101108.94;;;18.42;24.42
44198;BME280;30157;55.512;37.764;2023-04-08T07:19:30;101155.75;;;19.20;24.14
44198;BME280;30157;55.512;37.764;2023-04-08T07:21:56;101111.22;;;19.54;23.44
44198;BME280;30157;55.512;37.764;2023-04-08T07:24:22;101071.75;;;19.53;23.16
44198;BME280;30157;55.512;37.764;2023-04-08T07:26:48;101085.41;;;19.70;22.85
44198;BME280;30157;55.512;37.764;2023-04-08T07:29:14;101120.03;;;20.30;22.86
44198;BME280;30157;55.512;37.764;2023-04-08T07:31:42;101147.81;;;20.45;22.30
44198;BME280;30157;55.512;37.764;2023-04-08T07:34:08;101142.63;;;20.40;22.24
44198;BME280;30157;55.512;37.764;2023-04-08T07:36:34;101122.72;;;20.28;22.22
44198;BME280;30157;55.512;37.764;2023-04-08T07:39:00;101119.44;;;19.79;23.03
44198;BME280;30157;55.512;37.764;2023-04-08T07:41:25;101103.41;;;19.50;22.67
44198;BME280;30157;55.512;37.764;2023-04-08T07:43:51;101136.09;;;19.39;23.44
44198;BME280;30157;55.512;37.764;2023-04-08T07:46:17;101125.81;;;19.27;23.18
44198;BME280;30157;55.512;37.764;2023-04-08T07:48:44;101129.28;;;19.71;23.56
44198;BME280;30157;55.512;37.764;2023-04-08T07:51:12;101136.16;;;19.36;23.45
44198;BME280;30157;55.512;37.764;2023-04-08T07:53:39;101126.56;;;19.34;23.26
44198;BME280;30157;55.512;37.764;2023-04-08T07:56:12;101151.81;;;19.42;23.54
44198;BME280;30157;55.512;37.764;2023-04-08T07:58:38;101141.97;;;19.08;23.70
44198;BME280;30157;55.512;37.764;2023-04-08T08:01:17;101119.28;;;19.03;23.70
44198;BME280;30157;55.512;37.764;2023-04-08T08:03:44;101142.75;;;19.56;23.10
44198;BME280;30157;55.512;37.764;2023-04-08T08:06:12;101142.59;;;20.04;22.28
44198;BME280;30157;55.512;37.764;2023-04-08T08:08:38;101134.69;;;20.04;22.43
44198;BME280;30157;55.512;37.764;2023-04-08T08:11:03;101123.41;;;19.58;22.55
44198;BME280;30157;55.512;37.764;2023-04-08T08:13:29;101101.09;;;19.34;22.74
44198;BME280;30157;55.512;37.764;2023-04-08T08:15:55;101119.06;;;19.13;23.06
44198;BME280;30157;55.512;37.764;2023-04-08T08:18:24;101136.41;;;19.22;22.78
44198;BME280;30157;55.512;37.764;2023-04-08T08:20:49;101122.72;;;19.91;22.48
44198;BME280;30157;55.512;37.764;2023-04-08T08:23:15;101068.34;;;20.59;22.15
44198;BME280;30157;55.512;37.764;2023-04-08T08:25:41;101010.56;;;19.43;21.80
44198;BME280;30157;55.512;37.764;2023-04-08T08:28:07;101136.81;;;20.62;21.43
44198;BME280;30157;55.512;37.764;2023-04-08T08:30:33;101112.44;;;20.88;20.55
44198;BME280;30157;55.512;37.764;2023-04-08T08:32:58;101111.88;;;21.08;20.71
44198;BME280;30157;55.512;37.764;2023-04-08T08:35:25;101126.97;;;20.70;20.61
44198;BME280;30157;55.512;37.764;2023-04-08T08:37:50;101122.13;;;20.52;20.79
44198;BME280;30157;55.512;37.764;2023-04-08T08:40:16;101107.19;;;20.16;21.30
44198;BME280;30157;55.512;37.764;2023-04-08T08:42:49;101067.25;;;19.16;22.20
44198;BME280;30157;55.512;37.764;2023-04-08T08:45:18;101117.94;;;19.68;22.57
44198;BME280;30157;55.512;37.764;2023-04-08T08:47:43;101108.22;;;20.10;22.24
44198;BME280;30157;55.512;37.764;2023-04-08T08:50:09;101131.09;;;20.08;22.08
44198;BME280;30157;55.512;37.764;2023-04-08T08:52:35;101126.00;;;19.60;22.34
44198;BME280;30157;55.512;37.764;2023-04-08T08:55:01;101116.47;;;19.12;23.25
44198;BME280;30157;55.512;37.764;2023-04-08T08:57:26;101063.53;;;18.32;23.87
44198;BME280;30157;55.512;37.764;2023-04-08T08:59:52;101101.03;;;18.43;24.01
44198;BME280;30157;55.512;37.764;2023-04-08T09:02:30;101081.84;;;19.32;23.07
44198;BME280;30157;55.512;37.764;2023-04-08T09:04:58;101042.59;;;18.76;23.54
44198;BME280;30157;55.512;37.764;2023-04-08T09:07:25;101106.00;;;19.51;23.64
44198;BME280;30157;55.512;37.764;2023-04-08T09:09:56;101100.22;;;20.13;22.07
44198;BME280;30157;55.512;37.764;2023-04-08T09:12:23;101060.97;;;20.03;22.02
44198;BME280;30157;55.512;37.764;2023-04-08T09:14:49;101105.91;;;20.67;21.66
44198;BME280;30157;55.512;37.764;2023-04-08T09:17:15;101070.47;;;21.10;20.79
44198;BME280;30157;55.512;37.764;2023-04-08T09:20:17;101062.84;;;21.61;19.59
44198;BME280;30157;55.512;37.764;2023-04-08T09:25:32;101124.09;;;20.43;20.71
44198;BME280;30157;55.512;37.764;2023-04-08T09:27:59;101108.97;;;20.16;20.04
44198;BME280;30157;55.512;37.764;2023-04-08T09:30:26;101109.41;;;19.97;20.52
44198;BME280;30157;55.512;37.764;2023-04-08T09:32:56;101112.25;;;20.25;20.24
44198;BME280;30157;55.512;37.764;2023-04-08T09:35:23;101103.72;;;20.16;20.50
44198;BME280;30157;55.512;37.764;2023-04-08T09:37:49;101069.41;;;19.40;20.86
44198;BME280;30157;55.512;37.764;2023-04-08T09:40:16;101062.06;;;19.55;21.13
44198;BME280;30157;55.512;37.764;2023-04-08T09:42:47;101106.19;;;19.84;21.41
44198;BME280;30157;55.512;37.764;2023-04-08T09:45:16;101120.84;;;19.11;22.10
44198;BME280;30157;55.512;37.764;2023-04-08T09:47:56;101106.25;;;18.95;22.71
44198;BME280;30157;55.512;37.764;2023-04-08T09:50:26;101098.66;;;19.25;22.68
44198;BME280;30157;55.512;37.764;2023-04-08T09:53:01;101107.84;;;19.90;21.89
44198;BME280;30157;55.512;37.764;2023-04-08T09:55:35;101113.22;;;19.84;22.24
44198;BME280;30157;55.512;37.764;2023-04-08T09:58:10;101101.25;;;19.69;23.11
44198;BME280;30157;55.512;37.764;2023-04-08T10:00:42;101006.91;;;19.48;22.88
44198;BME280;30157;55.512;37.764;2023-04-08T10:03:36;101077.44;;;20.11;22.99
44198;BME280;30157;55.512;37.764;2023-04-08T10:06:05;101093.78;;;19.89;23.33
44198;BME280;30157;55.512;37.764;2023-04-08T10:08:33;101048.63;;;18.34;24.52
44198;BME280;30157;55.512;37.764;2023-04-08T10:10:59;101057.28;;;18.39;24.95
44198;BME280;30157;55.512;37.764;2023-04-08T10:13:26;101042.03;;;17.51;25.67
44198;BME280;30157;55.512;37.764;2023-04-08T10:18:44;101070.88;;;18.11;25.22
44198;BME280;30157;55.512;37.764;2023-04-08T10:21:36;101044.97;;;17.27;26.03
44198;BME280;30157;55.512;37.764;2023-04-08T10:24:05;101074.94;;;17.73;25.92
44198;BME280;30157;55.512;37.764;2023-04-08T10:26:36;101058.19;;;18.38;25.35
44198;BME280;30157;55.512;37.764;2023-04-08T10:31:44;101054.50;;;18.95;24.03
44198;BME280;30157;55.512;37.764;2023-04-08T10:34:18;101077.59;;;18.79;24.33
44198;BME280;30157;55.512;37.764;2023-04-08T10:36:45;101036.94;;;18.51;24.75
44198;BME280;30157;55.512;37.764;2023-04-08T10:39:15;101031.66;;;18.01;25.11
44198;BME280;30157;55.512;37.764;2023-04-08T10:42:03;101060.31;;;18.14;25.49
44198;BME280;30157;55.512;37.764;2023-04-08T10:44:28;101059.97;;;18.83;24.54
44198;BME280;30157;55.512;37.764;2023-04-08T10:46:54;101056.63;;;18.75;24.46
44198;BME280;30157;55.512;37.764;2023-04-08T10:49:20;101005.75;;;18.77;24.44
44198;BME280;30157;55.512;37.764;2023-04-08T10:51:47;100944.16;;;18.45;24.25
44198;BME280;30157;55.512;37.764;2023-04-08T10:54:14;101051.91;;;18.94;24.92
44198;BME280;30157;55.512;37.764;2023-04-08T10:56:51;101062.28;;;19.44;24.74
44198;BME280;30157;55.512;37.764;2023-04-08T10:59:29;101035.66;;;19.97;23.50
44198;BME280;30157;55.512;37.764;2023-04-08T11:01:55;101051.31;;;20.38;23.33
44198;BME280;30157;55.512;37.764;2023-04-08T11:04:21;100987.22;;;19.65;23.66
44198;BME280;30157;55.512;37.764;2023-04-08T11:06:50;101026.91;;;20.29;23.24
44198;BME280;30157;55.512;37.764;2023-04-08T11:09:16;100968.47;;;20.46;22.64
44198;BME280;30157;55.512;37.764;2023-04-08T11:11:43;101000.41;;;20.36;22.67
44198;BME280;30157;55.512;37.764;2023-04-08T11:14:09;101015.88;;;21.12;22.25
44198;BME280;30157;55.512;37.764;2023-04-08T11:16:37;101035.25;;;21.70;21.83
44198;BME280;30157;55.512;37.764;2023-04-08T11:19:04;101013.22;;;21.71;21.33
44198;BME280;30157;55.512;37.764;2023-04-08T11:21:31;100987.66;;;20.85;22.10
44198;BME280;30157;55.512;37.764;2023-04-08T11:23:57;100972.75;;;20.18;22.35
44198;BME280;30157;55.512;37.764;2023-04-08T11:26:24;101028.91;;;20.87;21.87
44198;BME280;30157;55.512;37.764;2023-04-08T11:28:50;101017.47;;;21.18;21.37
44198;BME280;30157;55.512;37.764;2023-04-08T11:31:20;100966.13;;;21.28;21.04
44198;BME280;30157;55.512;37.764;2023-04-08T11:33:47;100966.88;;;21.32;21.09
44198;BME280;30157;55.512;37.764;2023-04-08T11:36:14;101019.53;;;21.67;21.57
44198;BME280;30157;55.512;37.764;2023-04-08T11:38:42;101009.72;;;21.40;21.30
44198;BME280;30157;55.512;37.764;2023-04-08T11:41:09;100992.66;;;21.52;21.38
44198;BME280;30157;55.512;37.764;2023-04-08T11:43:36;100986.50;;;21.52;20.87
44198;BME280;30157;55.512;37.764;2023-04-08T11:46:09;100991.19;;;21.43;20.75
44198;BME280;30157;55.512;37.764;2023-04-08T11:48:35;101005.66;;;22.13;20.33
44198;BME280;30157;55.512;37.764;2023-04-08T11:51:02;100983.59;;;22.40;20.04
44198;BME280;30157;55.512;37.764;2023-04-08T11:53:29;101010.38;;;22.04;20.71
44198;BME280;30157;55.512;37.764;2023-04-08T11:55:54;100991.75;;;21.81;20.36
44198;BME280;30157;55.512;37.764;2023-04-08T11:58:21;100945.50;;;21.11;20.85
44198;BME280;30157;55.512;37.764;2023-04-08T12:00:46;100985.59;;;21.53;20.23
44198;BME280;30157;55.512;37.764;2023-04-08T12:03:13;100933.19;;;20.82;20.74
44198;BME280;30157;55.512;37.764;2023-04-08T12:05:40;100981.22;;;21.23;21.31
44198;BME280;30157;55.512;37.764;2023-04-08T12:08:07;100993.34;;;21.01;21.11
44198;BME280;30157;55.512;37.764;2023-04-08T12:10:33;100983.63;;;20.71;20.74
44198;BME280;30157;55.512;37.764;2023-04-08T12:13:01;100935.44;;;20.33;20.36
44198;BME280;30157;55.512;37.764;2023-04-08T12:15:27;100942.78;;;20.22;20.73
44198;BME280;30157;55.512;37.764;2023-04-08T12:17:53;100973.25;;;20.96;20.24
44198;BME280;30157;55.512;37.764;2023-04-08T12:20:18;100990.91;;;20.28;20.39
44198;BME280;30157;55.512;37.764;2023-04-08T12:22:44;100962.63;;;20.35;20.37
44198;BME280;30157;55.512;37.764;2023-04-08T12:25:10;100969.16;;;21.14;19.81
44198;BME280;30157;55.512;37.764;2023-04-08T12:27:35;100932.47;;;19.78;20.29
44198;BME280;30157;55.512;37.764;2023-04-08T12:30:02;100920.13;;;20.46;19.65
44198;BME280;30157;55.512;37.764;2023-04-08T12:32:29;100916.22;;;19.96;19.74
44198;BME280;30157;55.512;37.764;2023-04-08T12:34:55;100992.03;;;20.53;19.33
44198;BME280;30157;55.512;37.764;2023-04-08T12:37:20;100870.22;;;20.71;18.87
44198;BME280;30157;55.512;37.764;2023-04-08T12:39:46;100962.81;;;21.22;19.17
44198;BME280;30157;55.512;37.764;2023-04-08T12:42:13;100968.78;;;20.67;19.38
44198;BME280;30157;55.512;37.764;2023-04-08T12:44:38;100921.06;;;20.76;19.37
44198;BME280;30157;55.512;37.764;2023-04-08T12:47:06;100971.56;;;20.94;20.83
44198;BME280;30157;55.512;37.764;2023-04-08T12:49:32;100951.41;;;20.91;20.64
44198;BME280;30157;55.512;37.764;2023-04-08T12:51:58;100926.91;;;21.71;19.55
44198;BME280;30157;55.512;37.764;2023-04-08T12:54:23;100943.66;;;22.47;19.36
44198;BME280;30157;55.512;37.764;2023-04-08T12:56:49;100939.66;;;22.85;19.03